Time;durP1;ratioP1;P1;durP2;ratioP2;P2;SDS_P1;SDS_P2;PMS_P1;PMS_P2;Temp;Humidity;BMP_temperature;BMP_pressure;BME280_temperature;BME280_humidity;BME280_pressure;Samples;Min_cycle;Max_cycle;Signal;HPM_P1;HPM_P2
2023/03/23 00:00:12;;;;;;;4.93;2.37;;;17.40;99.90;;;;;;6188851;23;20186;-94
2023/03/23 00:02:45;;;;;;;3.13;2.13;;;17.60;99.90;;;;;;6190216;23;20657;-95
2023/03/23 00:05:14;;;;;;;3.43;2.00;;;17.60;99.90;;;;;;6189796;23;20172;-96
2023/03/23 00:07:44;;;;;;;4.57;2.07;;;17.80;99.90;;;;;;6215516;23;20188;-96
2023/03/23 00:10:14;;;;;;;2.87;2.00;;;17.60;98.80;;;;;;6189749;23;20223;-93
2023/03/23 00:12:44;;;;;;;4.37;2.20;;;17.60;98.80;;;;;;6189634;23;20619;-85
2023/03/23 00:15:16;;;;;;;3.47;2.30;;;17.80;99.80;;;;;;6197795;23;20220;-96
2023/03/23 00:17:49;;;;;;;3.03;2.30;;;17.80;97.90;;;;;;6191606;23;20179;-95
2023/03/23 00:20:19;;;;;;;6.13;2.20;;;17.60;97.10;;;;;;6188849;23;20238;-95
2023/03/23 00:22:49;;;;;;;3.87;2.10;;;17.50;95.40;;;;;;6192347;23;20211;-95
2023/03/23 00:25:19;;;;;;;4.90;2.00;;;17.20;95.90;;;;;;6189678;23;20202;-94
2023/03/23 00:27:48;;;;;;;5.17;2.03;;;17.00;93.30;;;;;;6189267;23;20239;-94
2023/03/23 00:30:19;;;;;;;6.50;2.13;;;16.80;93.50;;;;;;6190809;23;20250;-94
2023/03/23 00:32:50;;;;;;;4.03;2.00;;;16.50;93.20;;;;;;6192384;23;20173;-96
2023/03/23 00:35:21;;;;;;;6.47;2.03;;;16.50;93.90;;;;;;6192731;23;20246;-96
2023/03/23 00:37:50;;;;;;;3.30;2.30;;;16.40;93.00;;;;;;6192940;23;20252;-95
2023/03/23 00:40:20;;;;;;;4.93;1.93;;;16.40;92.10;;;;;;6192108;23;20210;-94
2023/03/23 00:42:50;;;;;;;4.40;1.70;;;16.40;92.10;;;;;;6192115;23;20184;-95
2023/03/23 00:45:20;;;;;;;2.83;1.90;;;16.30;91.60;;;;;;6167937;23;20511;-94
2023/03/23 00:47:52;;;;;;;5.13;2.27;;;16.20;91.90;;;;;;6192655;23;20183;-95
2023/03/23 00:50:22;;;;;;;5.10;2.17;;;16.20;93.10;;;;;;6193926;23;20211;-96
2023/03/23 00:52:52;;;;;;;4.57;1.90;;;16.30;91.70;;;;;;6197434;23;20203;-96
2023/03/23 00:55:22;;;;;;;4.53;1.93;;;16.20;91.10;;;;;;6211743;23;20227;-90
2023/03/23 00:57:52;;;;;;;5.70;2.10;;;16.10;90.10;;;;;;6215424;23;20168;-95
2023/03/23 01:00:22;;;;;;;2.83;1.90;;;15.90;92.10;;;;;;6211204;23;20176;-94
2023/03/23 01:02:54;;;;;;;4.30;1.90;;;15.90;90.30;;;;;;6192614;23;20209;-92
2023/03/23 01:05:23;;;;;;;4.87;2.10;;;15.70;94.20;;;;;;6193451;23;20630;-92
2023/03/23 01:07:53;;;;;;;4.20;1.80;;;15.60;91.30;;;;;;6191373;23;20185;-93
2023/03/23 01:10:22;;;;;;;3.03;2.00;;;15.60;91.60;;;;;;6193002;23;20173;-93
2023/03/23 01:12:53;;;;;;;5.43;2.07;;;15.60;89.10;;;;;;6168727;23;20603;-89
2023/03/23 01:15:23;;;;;;;2.63;1.90;;;15.60;88.30;;;;;;6193216;23;20204;-93
2023/03/23 01:17:54;;;;;;;3.90;2.10;;;15.60;88.60;;;;;;6190031;23;20231;-94
2023/03/23 01:20:23;;;;;;;4.27;1.90;;;15.50;89.10;;;;;;6196163;23;20203;-93
2023/03/23 01:22:52;;;;;;;3.73;1.87;;;15.40;90.70;;;;;;6192200;23;20231;-93
2023/03/23 01:25:22;;;;;;;3.23;1.83;;;15.40;90.70;;;;;;6192241;23;20181;-93
2023/03/23 01:27:51;;;;;;;4.77;2.10;;;15.30;90.70;;;;;;6193573;23;20176;-94
2023/03/23 01:30:21;;;;;;;3.30;1.70;;;15.30;91.10;;;;;;6194629;23;20299;-93
2023/03/23 01:32:53;;;;;;;5.43;2.17;;;15.20;94.40;;;;;;6171895;23;20176;-92
2023/03/23 01:35:22;;;;;;;3.03;1.70;;;15.00;94.50;;;;;;6195638;23;20254;-93
2023/03/23 01:37:52;;;;;;;5.57;2.20;;;14.90;93.80;;;;;;6196890;23;20200;-93
2023/03/23 01:40:22;;;;;;;5.33;2.30;;;14.70;95.50;;;;;;6200348;23;20228;-94
2023/03/23 01:42:52;;;;;;;5.87;2.20;;;14.60;97.10;;;;;;6195527;23;20176;-92
2023/03/23 01:45:32;;;;;;;4.80;2.00;;;14.50;97.40;;;;;;6192098;23;20212;-95
2023/03/23 01:48:11;;;;;;;5.40;2.23;;;14.40;99.90;;;;;;6191469;23;20178;-93
2023/03/23 01:50:50;;;;;;;2.83;2.20;;;14.30;99.90;;;;;;6167612;23;20195;-94
2023/03/23 01:53:22;;;;;;;3.17;1.90;;;14.20;99.40;;;;;;6192926;23;20172;-95
2023/03/23 01:55:56;;;;;;;4.77;2.00;;;14.10;99.90;;;;;;6191741;23;20212;-94
2023/03/23 01:58:29;;;;;;;6.00;2.50;;;14.00;99.90;;;;;;6192357;23;20180;-95
2023/03/23 02:01:02;;;;;;;4.30;2.13;;;13.90;99.90;;;;;;6193085;23;20207;-95
2023/03/23 02:03:35;;;;;;;4.10;2.30;;;13.80;99.90;;;;;;6192518;23;20219;-94
2023/03/23 02:06:05;;;;;;;4.37;2.30;;;13.60;99.90;;;;;;6191935;23;20211;-95
2023/03/23 02:08:36;;;;;;;3.57;2.03;;;13.50;99.90;;;;;;6191527;23;20267;-92
2023/03/23 02:11:15;;;;;;;2.77;2.00;;;13.40;99.90;;;;;;6192102;23;20598;-95
2023/03/23 02:13:45;;;;;;;2.20;1.90;;;13.30;99.90;;;;;;6191098;23;20211;-96
2023/03/23 02:16:22;;;;;;;6.80;2.23;;;13.20;99.90;;;;;;6191250;23;20301;-95
2023/03/23 02:19:03;;;;;;;7.23;2.70;;;13.10;99.90;;;;;;6216133;23;20251;-93
2023/03/23 02:21:56;;;;;;;11.27;3.03;;;13.00;99.90;;;;;;6190641;23;20248;-93
2023/03/23 02:24:52;;;;;;;28.70;3.93;;;12.90;99.90;;;;;;6190496;23;20184;-91
2023/03/23 02:27:42;;;;;;;21.43;3.80;;;12.80;99.90;;;;;;6192406;23;20177;-91
2023/03/23 02:30:36;;;;;;;12.53;2.97;;;12.60;99.90;;;;;;6164789;23;20255;-92
2023/03/23 02:33:36;;;;;;;4.93;2.30;;;12.50;99.90;;;;;;6187191;23;20591;-93
2023/03/23 02:36:14;;;;;;;5.90;2.20;;;12.30;99.90;;;;;;6167339;23;20653;-93
2023/03/23 02:38:51;;;;;;;9.10;2.40;;;12.30;99.90;;;;;;6190699;23;20255;-94
2023/03/23 02:41:24;;;;;;;5.53;2.40;;;12.20;99.90;;;;;;6191238;23;20180;-93
2023/03/23 02:43:55;;;;;;;5.37;2.33;;;12.20;99.90;;;;;;6191248;23;20678;-93
2023/03/23 02:46:25;;;;;;;5.40;2.40;;;12.10;99.90;;;;;;6192686;23;20181;-90
2023/03/23 02:49:00;;;;;;;4.47;2.47;;;12.10;99.90;;;;;;6197104;23;20200;-95
2023/03/23 02:51:31;;;;;;;3.40;2.00;;;12.10;99.90;;;;;;6198435;23;20176;-96
2023/03/23 02:54:00;;;;;;;6.70;2.70;;;11.90;99.90;;;;;;6196669;23;20255;-93
2023/03/23 02:56:32;;;;;;;6.13;3.03;;;11.90;99.90;;;;;;6193272;23;20231;-93
2023/03/23 02:59:02;;;;;;;6.30;2.73;;;11.90;99.90;;;;;;6191099;23;20614;-93
2023/03/23 03:01:54;;;;;;;7.17;2.97;;;11.80;99.90;;;;;;6193971;23;20176;-95
2023/03/23 03:04:28;;;;;;;3.80;2.90;;;11.70;99.90;;;;;;6204749;23;20200;-95
2023/03/23 03:07:26;;;;;;;5.13;2.87;;;11.70;99.90;;;;;;6205864;23;20194;-94
2023/03/23 03:10:00;;;;;;;4.47;2.80;;;11.70;99.90;;;;;;6197986;23;20264;-93
2023/03/23 03:12:38;;;;;;;4.37;2.87;;;11.60;99.90;;;;;;6197413;23;20208;-95
2023/03/23 03:15:20;;;;;;;6.80;2.77;;;11.70;99.90;;;;;;6192641;23;20226;-93
2023/03/23 03:17:55;;;;;;;4.37;2.93;;;11.70;99.90;;;;;;6191289;23;20391;-92
2023/03/23 03:20:29;;;;;;;5.57;2.77;;;11.60;99.90;;;;;;6194719;23;20172;-93
2023/03/23 03:22:59;;;;;;;3.83;2.97;;;11.60;99.90;;;;;;6196517;23;20494;-94
2023/03/23 03:25:31;;;;;;;4.40;2.93;;;11.70;99.90;;;;;;6194026;23;20242;-92
2023/03/23 03:28:00;;;;;;;4.33;2.87;;;11.70;99.90;;;;;;6193555;23;20200;-92
2023/03/23 03:30:36;;;;;;;5.43;3.00;;;11.70;99.90;;;;;;6198462;23;20181;-93
2023/03/23 03:33:06;;;;;;;4.57;3.27;;;11.70;99.90;;;;;;6202136;23;20180;-92
2023/03/23 03:35:40;;;;;;;5.33;3.30;;;11.60;99.90;;;;;;6148283;23;20200;-93
2023/03/23 03:38:11;;;;;;;10.03;2.90;;;11.60;99.90;;;;;;6164419;23;20180;-92
2023/03/23 03:40:41;;;;;;;6.87;3.30;;;11.50;99.90;;;;;;6191617;23;20230;-93
2023/03/23 03:43:11;;;;;;;3.30;2.97;;;11.40;99.90;;;;;;6215940;23;20176;-93
2023/03/23 03:45:41;;;;;;;7.00;2.80;;;11.30;99.90;;;;;;6190502;23;20217;-94
2023/03/23 03:48:11;;;;;;;4.53;2.90;;;11.20;99.90;;;;;;6190715;23;20172;-90
2023/03/23 03:50:43;;;;;;;5.80;3.37;;;11.10;99.90;;;;;;6141289;23;20173;-92
2023/03/23 03:53:13;;;;;;;4.43;3.37;;;11.00;99.90;;;;;;6166683;23;20176;-92
2023/03/23 03:55:45;;;;;;;5.33;3.30;;;11.00;99.90;;;;;;6192561;23;20188;-94
2023/03/23 03:58:14;;;;;;;5.73;3.27;;;10.90;99.90;;;;;;6165232;23;20638;-94
2023/03/23 04:00:47;;;;;;;4.57;3.23;;;10.80;99.90;;;;;;6189844;23;20177;-94
2023/03/23 04:03:17;;;;;;;5.60;3.57;;;10.70;99.90;;;;;;6191739;23;20265;-93
2023/03/23 04:05:48;;;;;;;5.80;2.90;;;10.70;99.90;;;;;;6190725;23;20572;-93
2023/03/23 04:08:18;;;;;;;4.10;2.83;;;10.60;99.90;;;;;;6189798;23;20193;-94
2023/03/23 04:10:49;;;;;;;3.83;3.10;;;10.60;99.90;;;;;;6191648;23;20172;-94
2023/03/23 04:13:18;;;;;;;7.17;3.23;;;10.60;99.90;;;;;;6193144;23;20176;-92
2023/03/23 04:15:48;;;;;;;3.57;2.67;;;10.60;99.90;;;;;;6191608;23;20172;-95
2023/03/23 04:18:19;;;;;;;4.60;3.03;;;10.60;99.90;;;;;;6191532;23;20176;-96
2023/03/23 04:20:51;;;;;;;7.03;3.20;;;10.50;99.90;;;;;;6192189;23;20176;-94
2023/03/23 04:23:22;;;;;;;4.83;3.30;;;10.50;99.90;;;;;;6189964;23;20176;-95
2023/03/23 04:25:57;;;;;;;5.03;3.20;;;10.50;99.90;;;;;;6191203;23;20203;-93
2023/03/23 04:28:27;;;;;;;4.33;3.20;;;10.50;99.90;;;;;;6191418;23;20190;-96
2023/03/23 04:30:57;;;;;;;5.40;3.03;;;10.50;99.90;;;;;;6190503;23;20216;-92
2023/03/23 04:33:28;;;;;;;4.53;3.23;;;10.50;99.90;;;;;;6189696;23;20220;-92
2023/03/23 04:36:02;;;;;;;5.50;2.97;;;10.50;99.90;;;;;;6191439;23;20232;-92
2023/03/23 04:38:32;;;;;;;4.37;2.80;;;10.50;99.90;;;;;;6215671;23;20184;-94
2023/03/23 04:41:02;;;;;;;4.53;2.50;;;10.50;99.90;;;;;;6189134;23;20176;-92
2023/03/23 04:43:32;;;;;;;5.20;2.90;;;10.50;99.90;;;;;;6190554;23;20242;-91
2023/03/23 04:46:02;;;;;;;6.30;3.10;;;10.50;99.90;;;;;;6193173;23;20615;-91
2023/03/23 04:48:33;;;;;;;6.20;2.73;;;10.40;99.90;;;;;;6193123;23;20176;-92
2023/03/23 04:51:06;;;;;;;4.30;3.13;;;10.40;99.90;;;;;;6190631;23;20220;-93
2023/03/23 04:53:36;;;;;;;4.40;2.70;;;10.40;99.90;;;;;;6191082;23;20208;-92
2023/03/23 04:56:05;;;;;;;6.57;2.93;;;10.40;99.90;;;;;;6193766;23;20549;-93
2023/03/23 04:58:35;;;;;;;5.23;2.90;;;10.40;99.90;;;;;;6189994;23;20177;-92
2023/03/23 05:01:05;;;;;;;4.47;2.87;;;10.40;99.90;;;;;;6192582;23;20173;-95
2023/03/23 05:03:34;;;;;;;6.10;3.00;;;10.40;99.90;;;;;;6192991;23;20177;-93
2023/03/23 05:06:09;;;;;;;4.67;2.73;;;10.40;99.90;;;;;;6192894;23;20559;-95
2023/03/23 05:08:39;;;;;;;5.50;2.80;;;10.40;99.90;;;;;;6194828;23;20201;-94
2023/03/23 05:11:09;;;;;;;5.10;3.10;;;10.30;99.90;;;;;;6209849;23;20188;-92
2023/03/23 05:13:39;;;;;;;3.87;3.07;;;10.40;99.90;;;;;;6215653;23;20204;-93
2023/03/23 05:16:09;;;;;;;4.63;3.37;;;10.30;99.90;;;;;;6212711;23;20173;-94
2023/03/23 05:18:38;;;;;;;4.60;3.50;;;10.30;99.90;;;;;;6198664;23;20172;-92
2023/03/23 05:21:10;;;;;;;5.73;3.30;;;10.40;99.90;;;;;;6197472;23;20665;-94
2023/03/23 05:23:40;;;;;;;6.80;3.27;;;10.40;99.90;;;;;;6194363;23;20187;-94
2023/03/23 05:26:10;;;;;;;6.80;3.00;;;10.50;99.90;;;;;;6196055;23;20215;-94
2023/03/23 05:28:41;;;;;;;7.07;3.13;;;10.50;99.90;;;;;;6192368;23;20212;-94
2023/03/23 05:31:11;;;;;;;4.40;3.20;;;10.60;99.90;;;;;;6192945;23;20176;-94
2023/03/23 05:33:40;;;;;;;4.77;2.87;;;10.60;99.90;;;;;;6193559;23;20177;-91
2023/03/23 05:36:13;;;;;;;3.40;3.10;;;10.60;99.90;;;;;;6192208;23;20259;-93
2023/03/23 05:38:45;;;;;;;5.20;2.93;;;10.60;99.90;;;;;;6190004;23;20254;-93
2023/03/23 05:41:14;;;;;;;5.27;3.27;;;10.70;99.90;;;;;;6194874;23;20514;-91
2023/03/23 05:43:44;;;;;;;7.17;3.10;;;10.60;99.90;;;;;;6192947;23;20181;-93
2023/03/23 05:46:14;;;;;;;3.73;2.90;;;10.60;99.90;;;;;;6192170;23;20254;-92
2023/03/23 05:48:43;;;;;;;5.40;2.57;;;10.60;99.90;;;;;;6190114;23;20247;-92
2023/03/23 05:51:15;;;;;;;3.97;2.20;;;10.60;99.90;;;;;;6190918;23;20608;-91
2023/03/23 05:53:44;;;;;;;6.70;2.40;;;10.60;99.90;;;;;;6190626;23;20168;-92
2023/03/23 05:56:14;;;;;;;6.50;2.70;;;10.50;99.90;;;;;;6189976;23;20678;-91
2023/03/23 05:58:43;;;;;;;5.23;2.40;;;10.50;99.90;;;;;;6188873;23;20619;-92
2023/03/23 06:01:13;;;;;;;2.93;2.53;;;10.40;99.90;;;;;;6190762;23;20206;-91
2023/03/23 06:03:43;;;;;;;3.47;2.40;;;10.30;99.90;;;;;;6191319;23;20665;-91
2023/03/23 06:06:15;;;;;;;5.77;2.47;;;10.20;99.90;;;;;;6192189;23;20206;-94
2023/03/23 06:08:45;;;;;;;4.87;2.30;;;10.00;99.90;;;;;;6168913;23;20263;-93
2023/03/23 06:11:15;;;;;;;4.63;2.20;;;9.80;99.90;;;;;;6173564;23;20204;-93
2023/03/23 06:13:44;;;;;;;4.30;2.40;;;9.60;99.90;;;;;;6194254;23;20183;-94
2023/03/23 06:16:14;;;;;;;4.37;2.20;;;9.50;99.90;;;;;;6194367;23;20627;-92
2023/03/23 06:18:44;;;;;;;6.53;2.43;;;9.40;99.90;;;;;;6191534;23;20286;-95
2023/03/23 06:21:18;;;;;;;4.40;2.47;;;9.30;99.90;;;;;;6193157;23;20176;-95
2023/03/23 06:23:48;;;;;;;3.83;1.90;;;9.20;99.90;;;;;;6193903;23;20605;-95
2023/03/23 06:26:20;;;;;;;7.50;2.37;;;9.20;99.90;;;;;;6193667;23;20665;-95
2023/03/23 06:28:50;;;;;;;4.47;1.90;;;9.10;99.90;;;;;;6167076;23;20559;-94
2023/03/23 06:31:23;;;;;;;3.60;2.00;;;9.00;99.90;;;;;;6195088;23;20173;-95
2023/03/23 06:33:55;;;;;;;6.60;2.67;;;9.00;99.90;;;;;;6198429;23;20183;-95
2023/03/23 06:36:28;;;;;;;4.80;2.27;;;8.90;99.90;;;;;;6197502;23;20173;-95
2023/03/23 06:38:57;;;;;;;4.97;2.27;;;8.80;99.90;;;;;;6193449;23;20236;-95
2023/03/23 06:41:28;;;;;;;6.20;2.43;;;8.70;99.90;;;;;;6202556;23;20230;-92
2023/03/23 06:43:57;;;;;;;7.03;2.40;;;8.80;99.90;;;;;;6200408;23;20181;-94
2023/03/23 06:46:27;;;;;;;3.93;2.20;;;8.70;99.90;;;;;;6204211;23;20248;-91
2023/03/23 06:48:57;;;;;;;3.53;2.00;;;8.60;99.90;;;;;;6193725;23;20256;-92
2023/03/23 06:51:28;;;;;;;6.07;2.33;;;8.50;99.90;;;;;;6191408;23;20184;-92
2023/03/23 06:53:58;;;;;;;9.30;2.10;;;8.30;99.90;;;;;;6191077;23;20642;-93
2023/03/23 06:56:27;;;;;;;7.17;2.63;;;8.20;99.90;;;;;;6189751;23;20231;-92
2023/03/23 06:58:57;;;;;;;4.67;2.20;;;8.20;99.90;;;;;;6188707;23;20208;-92
2023/03/23 07:01:27;;;;;;;4.60;1.77;;;8.10;99.90;;;;;;6190731;23;20173;-91
2023/03/23 07:03:57;;;;;;;7.27;2.33;;;8.10;99.90;;;;;;6192051;23;20176;-93
2023/03/23 07:06:29;;;;;;;6.23;2.47;;;8.00;99.90;;;;;;6190573;23;20204;-93
2023/03/23 07:08:59;;;;;;;10.43;2.27;;;8.00;99.90;;;;;;6197947;23;20176;-91
2023/03/23 07:11:29;;;;;;;8.00;2.17;;;8.00;99.90;;;;;;6206442;23;20172;-93
2023/03/23 07:13:58;;;;;;;7.33;2.57;;;7.90;99.90;;;;;;6206681;23;20191;-95
2023/03/23 07:16:28;;;;;;;7.23;2.67;;;7.90;99.90;;;;;;6204163;23;20264;-92
2023/03/23 07:18:58;;;;;;;5.37;2.20;;;7.90;99.90;;;;;;6212224;23;20207;-95
2023/03/23 07:21:31;;;;;;;3.30;2.07;;;7.90;99.90;;;;;;6211991;23;20165;-94
2023/03/23 07:24:01;;;;;;;6.63;2.40;;;8.00;99.90;;;;;;6206025;23;20176;-96
2023/03/23 07:26:30;;;;;;;6.47;2.20;;;8.00;99.90;;;;;;6200966;23;20176;-94
2023/03/23 07:29:00;;;;;;;5.27;2.60;;;8.10;99.90;;;;;;6192601;23;20617;-95
2023/03/23 07:31:30;;;;;;;5.20;2.30;;;8.20;99.90;;;;;;6192766;23;20181;-93
2023/03/23 07:34:00;;;;;;;4.30;2.10;;;8.20;99.90;;;;;;6193084;23;20179;-94
2023/03/23 07:36:32;;;;;;;4.20;2.07;;;8.20;99.90;;;;;;6193695;23;20623;-95
2023/03/23 07:39:02;;;;;;;4.97;2.03;;;8.20;99.90;;;;;;6167636;23;20208;-95
2023/03/23 07:41:32;;;;;;;4.47;1.80;;;8.20;99.90;;;;;;6193572;23;20179;-94
2023/03/23 07:44:02;;;;;;;7.23;1.83;;;8.10;99.90;;;;;;6194929;23;20669;-93
2023/03/23 07:46:32;;;;;;;6.23;2.23;;;8.20;99.90;;;;;;6191446;23;20188;-94
2023/03/23 07:49:04;;;;;;;4.03;1.83;;;8.10;99.90;;;;;;6189252;23;20210;-92
2023/03/23 07:51:38;;;;;;;3.57;2.03;;;8.10;99.90;;;;;;6190170;23;20179;-94
2023/03/23 07:54:09;;;;;;;3.83;1.83;;;8.10;99.90;;;;;;6190870;23;20176;-93
2023/03/23 07:56:41;;;;;;;8.17;2.07;;;8.10;99.90;;;;;;6190878;23;20176;-93
2023/03/23 07:59:11;;;;;;;3.93;1.80;;;8.10;99.90;;;;;;6187744;23;20212;-94
2023/03/23 08:01:40;;;;;;;4.57;1.93;;;8.00;99.90;;;;;;6189544;23;20176;-92
2023/03/23 08:04:10;;;;;;;3.50;2.00;;;8.00;99.90;;;;;;6189579;23;20287;-93
2023/03/23 08:06:42;;;;;;;5.47;2.00;;;8.00;99.90;;;;;;6189501;23;20204;-93
2023/03/23 08:09:13;;;;;;;3.50;1.33;;;8.00;99.90;;;;;;6188891;23;20203;-94
2023/03/23 08:11:42;;;;;;;3.77;1.50;;;8.00;99.90;;;;;;6189129;23;20203;-92
2023/03/23 08:14:12;;;;;;;4.50;1.77;;;8.00;99.90;;;;;;6190122;23;20184;-91
2023/03/23 08:16:42;;;;;;;5.73;1.77;;;7.90;99.90;;;;;;6194936;23;20206;-93
2023/03/23 08:19:12;;;;;;;3.07;1.57;;;7.90;99.90;;;;;;6192102;23;20235;-94
2023/03/23 08:21:44;;;;;;;5.03;1.83;;;7.90;99.90;;;;;;6193675;23;20179;-95
2023/03/23 08:24:14;;;;;;;2.47;1.37;;;7.90;99.90;;;;;;6192203;23;20173;-94
2023/03/23 08:26:43;;;;;;;3.57;1.60;;;7.90;99.90;;;;;;6192788;23;20204;-92
2023/03/23 08:29:14;;;;;;;7.70;1.63;;;7.90;99.90;;;;;;6190662;23;20222;-95
2023/03/23 08:31:44;;;;;;;3.70;1.33;;;7.80;99.90;;;;;;6192543;23;20176;-94
2023/03/23 08:34:15;;;;;;;5.03;1.70;;;7.80;99.90;;;;;;6176210;23;20276;-93
2023/03/23 08:36:47;;;;;;;3.97;1.70;;;7.70;99.90;;;;;;6197413;23;20169;-95
2023/03/23 08:39:17;;;;;;;7.63;1.63;;;7.70;99.90;;;;;;6170174;23;20210;-94
2023/03/23 08:41:47;;;;;;;3.63;1.87;;;7.70;99.90;;;;;;6194407;23;20211;-94
2023/03/23 08:44:17;;;;;;;5.33;1.80;;;7.70;99.90;;;;;;6195644;23;20244;-95
2023/03/23 08:46:47;;;;;;;2.50;1.27;;;7.70;99.90;;;;;;6199287;23;20176;-96
2023/03/23 08:49:17;;;;;;;3.40;1.53;;;7.70;99.90;;;;;;6169774;23;20249;-93
2023/03/23 08:51:48;;;;;;;4.70;1.57;;;7.70;99.90;;;;;;6192052;23;20177;-92
2023/03/23 08:54:18;;;;;;;2.57;1.50;;;7.70;99.90;;;;;;6194601;23;20611;-92
2023/03/23 08:56:48;;;;;;;2.50;1.07;;;7.70;99.90;;;;;;6195361;23;20242;-94
2023/03/23 08:59:17;;;;;;;3.37;1.50;;;7.70;99.90;;;;;;6190586;23;20215;-92
2023/03/23 09:01:47;;;;;;;7.27;1.70;;;7.70;99.90;;;;;;6192087;23;20168;-93
2023/03/23 09:04:17;;;;;;;4.87;1.40;;;7.60;99.90;;;;;;6166262;23;20212;-91
2023/03/23 09:06:49;;;;;;;2.00;1.30;;;7.70;99.90;;;;;;6190971;23;20208;-92
2023/03/23 09:09:19;;;;;;;5.63;1.53;;;7.70;99.90;;;;;;6189854;23;20230;-92
2023/03/23 09:11:49;;;;;;;5.23;1.67;;;7.70;99.90;;;;;;6191924;23;20180;-93
2023/03/23 09:14:19;;;;;;;5.17;1.73;;;7.70;99.90;;;;;;6192454;23;20176;-92
2023/03/23 09:16:48;;;;;;;3.47;1.87;;;7.60;99.90;;;;;;6193579;23;20176;-93
2023/03/23 09:19:18;;;;;;;3.67;1.60;;;7.60;99.90;;;;;;6194751;23;20279;-92
2023/03/23 09:21:50;;;;;;;3.90;1.40;;;7.70;99.90;;;;;;6207510;23;20164;-95
2023/03/23 09:24:20;;;;;;;4.70;2.00;;;7.70;99.90;;;;;;6214204;23;20169;-92
2023/03/23 09:26:50;;;;;;;3.13;1.33;;;7.60;99.90;;;;;;6214629;23;20172;-96
2023/03/23 09:29:20;;;;;;;5.87;1.63;;;7.70;99.90;;;;;;6203400;23;20195;-94
2023/03/23 09:31:50;;;;;;;3.37;1.40;;;7.70;99.90;;;;;;6198755;23;20173;-95
2023/03/23 09:34:20;;;;;;;11.87;1.80;;;7.70;99.90;;;;;;6194903;23;20172;-94
2023/03/23 09:36:52;;;;;;;7.40;1.80;;;7.70;99.90;;;;;;6195387;23;20620;-94
2023/03/23 09:39:22;;;;;;;4.73;1.57;;;7.70;99.90;;;;;;6168879;23;20204;-96
2023/03/23 09:42:03;;;;;;;5.67;1.50;;;7.60;99.90;;;;;;6197994;23;20180;-95
2023/03/23 09:44:44;;;;;;;4.67;1.50;;;7.60;99.90;;;;;;6196548;23;20191;-95
2023/03/23 09:47:21;;;;;;;4.07;1.37;;;7.60;99.90;;;;;;6198526;23;20208;-94
2023/03/23 09:49:57;;;;;;;1.83;1.30;;;7.50;99.90;;;;;;6194442;23;20230;-94
2023/03/23 09:52:44;;;;;;;4.77;1.60;;;7.60;99.90;;;;;;6195867;23;20176;-95
2023/03/23 09:55:17;;;;;;;9.43;1.57;;;7.50;99.90;;;;;;6196958;23;20641;-94
2023/03/23 09:57:55;;;;;;;2.73;1.30;;;7.50;99.90;;;;;;6192341;23;20176;-93
2023/03/23 10:00:28;;;;;;;2.93;1.00;;;7.50;99.90;;;;;;6192404;23;20260;-92
2023/03/23 10:03:05;;;;;;;3.40;1.30;;;7.50;99.90;;;;;;6192030;23;20896;-93
2023/03/23 10:05:37;;;;;;;3.73;1.80;;;7.50;99.90;;;;;;6191921;23;20207;-92
2023/03/23 10:08:15;;;;;;;4.37;1.17;;;7.50;99.90;;;;;;6192048;23;20188;-95
2023/03/23 10:10:53;;;;;;;3.27;1.30;;;7.50;99.90;;;;;;6192109;23;20196;-92
2023/03/23 10:13:35;;;;;;;3.87;1.40;;;7.40;99.90;;;;;;6192480;23;20172;-93
2023/03/23 10:16:07;;;;;;;4.37;1.60;;;7.40;99.90;;;;;;6193819;23;20567;-92
2023/03/23 10:18:43;;;;;;;1.87;1.37;;;7.40;99.90;;;;;;6191527;23;20239;-93
2023/03/23 10:21:18;;;;;;;1.63;1.27;;;7.40;99.90;;;;;;6200693;23;20176;-93
2023/03/23 10:23:56;;;;;;;5.93;1.50;;;7.50;99.90;;;;;;6205876;23;20176;-92
2023/03/23 10:26:35;;;;;;;5.70;1.70;;;7.50;99.90;;;;;;6174055;23;20199;-94
2023/03/23 10:29:16;;;;;;;3.67;1.80;;;7.50;99.90;;;;;;6198939;23;20211;-96
2023/03/23 10:31:50;;;;;;;4.10;1.20;;;7.40;99.90;;;;;;6199369;23;20171;-94
2023/03/23 10:34:26;;;;;;;3.57;1.33;;;7.40;99.90;;;;;;6194292;23;20179;-96
2023/03/23 10:37:11;;;;;;;3.00;1.30;;;7.40;99.90;;;;;;6197166;23;20172;-95
2023/03/23 10:39:50;;;;;;;3.67;1.30;;;7.40;99.90;;;;;;6194066;23;20702;-96
2023/03/23 10:42:29;;;;;;;4.30;1.50;;;7.40;99.90;;;;;;6195077;23;20180;-94
2023/03/23 10:45:03;;;;;;;5.57;1.70;;;7.40;99.90;;;;;;6197470;23;20183;-95
2023/03/23 10:47:33;;;;;;;4.77;1.67;;;7.40;99.90;;;;;;6196496;23;20240;-94
2023/03/23 10:50:06;;;;;;;3.83;1.60;;;7.30;99.90;;;;;;6195666;23;20176;-95
2023/03/23 10:52:37;;;;;;;2.93;1.40;;;7.30;99.90;;;;;;6197990;23;20177;-93
2023/03/23 10:55:13;;;;;;;4.27;1.67;;;7.40;99.90;;;;;;6202113;23;20208;-95
2023/03/23 10:57:44;;;;;;;3.40;1.30;;;7.40;99.90;;;;;;6199917;23;20172;-93
2023/03/23 11:00:22;;;;;;;3.93;1.60;;;7.40;99.90;;;;;;6201679;23;20176;-92
2023/03/23 11:03:02;;;;;;;6.87;1.47;;;7.40;99.90;;;;;;6208380;23;20191;-92
2023/03/23 11:05:39;;;;;;;3.37;1.10;;;7.40;99.90;;;;;;6204255;23;20248;-91
2023/03/23 11:08:15;;;;;;;3.07;1.43;;;7.40;99.90;;;;;;6194568;23;20219;-91
2023/03/23 11:10:54;;;;;;;5.00;1.73;;;7.40;99.90;;;;;;6190730;23;20207;-92
2023/03/23 11:13:30;;;;;;;3.63;1.70;;;7.30;99.90;;;;;;6191493;23;20172;-93
2023/03/23 11:16:00;;;;;;;4.30;1.50;;;7.30;99.90;;;;;;6191970;23;20180;-93
2023/03/23 11:18:38;;;;;;;2.60;0.93;;;7.30;99.90;;;;;;6190432;23;20601;-91
2023/03/23 11:21:11;;;;;;;5.33;1.30;;;7.30;99.90;;;;;;6192005;23;20728;-93
2023/03/23 11:23:43;;;;;;;4.27;1.33;;;7.30;99.90;;;;;;6191780;23;20176;-91
2023/03/23 11:26:17;;;;;;;4.83;1.40;;;7.20;99.90;;;;;;6191670;23;20199;-93
2023/03/23 11:28:51;;;;;;;7.77;1.40;;;7.20;99.90;;;;;;6209848;23;20187;-93
2023/03/23 11:31:25;;;;;;;3.97;1.00;;;7.20;99.90;;;;;;6214598;23;20176;-92
2023/03/23 11:33:57;;;;;;;4.33;1.20;;;7.20;99.90;;;;;;6203413;23;20169;-93
2023/03/23 11:36:34;;;;;;;3.77;1.23;;;7.20;99.90;;;;;;6193949;23;20198;-94
2023/03/23 11:39:05;;;;;;;6.87;1.70;;;7.20;99.90;;;;;;6190570;23;20313;-95
2023/03/23 11:41:40;;;;;;;5.30;1.40;;;7.10;99.90;;;;;;6194169;23;20183;-96
2023/03/23 11:44:13;;;;;;;3.53;1.00;;;7.10;99.90;;;;;;6194061;23;20262;-95
2023/03/23 11:46:52;;;;;;;6.13;1.30;;;7.10;99.90;;;;;;6193411;23;20177;-94
2023/03/23 11:49:33;;;;;;;5.17;1.37;;;7.10;99.90;;;;;;6169504;23;20454;-94
2023/03/23 11:52:13;;;;;;;7.27;1.47;;;7.10;99.90;;;;;;6193984;23;20183;-95
2023/03/23 11:54:49;;;;;;;4.43;1.30;;;7.10;99.90;;;;;;6219630;23;20168;-95
2023/03/23 11:57:21;;;;;;;2.83;1.10;;;7.10;99.90;;;;;;6191574;23;20268;-93
2023/03/23 11:59:51;;;;;;;2.93;1.10;;;7.10;99.90;;;;;;6191470;23;20962;-94
2023/03/23 12:02:34;;;;;;;2.87;1.00;;;7.10;99.90;;;;;;6218353;23;20187;-93
2023/03/23 12:05:37;;;;;;;6.37;1.20;;;7.00;99.90;;;;;;6192640;23;20179;-93
2023/03/23 12:08:22;;;;;;;2.57;1.07;;;7.00;99.90;;;;;;6190136;23;20179;-91
2023/03/23 12:11:00;;;;;;;3.87;1.30;;;7.00;99.90;;;;;;6190218;23;20599;-92
2023/03/23 12:13:52;;;;;;;6.27;1.53;;;7.00;99.90;;;;;;6166021;23;20275;-92
2023/03/23 12:16:30;;;;;;;6.33;1.43;;;6.90;99.90;;;;;;6191513;23;20208;-91
2023/03/23 12:19:09;;;;;;;4.77;1.23;;;6.90;99.90;;;;;;6189219;23;20204;-93
2023/03/23 12:21:50;;;;;;;5.17;1.60;;;6.90;99.90;;;;;;6193898;23;20260;-93
2023/03/23 12:24:32;;;;;;;4.37;1.53;;;6.90;99.90;;;;;;6194292;23;20180;-92
2023/03/23 12:27:10;;;;;;;5.90;1.67;;;6.90;99.90;;;;;;6193313;23;20179;-91
2023/03/23 12:29:53;;;;;;;3.83;1.20;;;6.90;99.90;;;;;;6192379;23;20575;-92
2023/03/23 12:32:33;;;;;;;3.93;1.30;;;6.90;99.90;;;;;;6193330;23;20505;-93
2023/03/23 12:35:16;;;;;;;4.93;1.50;;;6.90;99.90;;;;;;6196634;23;20176;-95
2023/03/23 12:37:57;;;;;;;3.83;1.20;;;6.90;99.90;;;;;;6195750;23;20176;-95
2023/03/23 12:40:53;;;;;;;1.50;1.00;;;6.90;99.90;;;;;;6193602;23;20290;-95
2023/03/23 12:43:29;;;;;;;6.67;1.33;;;6.90;99.90;;;;;;6196883;23;20207;-94
2023/03/23 12:46:11;;;;;;;7.23;1.27;;;6.90;99.90;;;;;;6194933;23;20207;-93
2023/03/23 12:48:43;;;;;;;10.30;1.50;;;6.90;99.90;;;;;;6168822;23;20176;-92
2023/03/23 12:51:19;;;;;;;5.13;1.47;;;7.00;99.90;;;;;;6194406;23;20690;-93
2023/03/23 12:53:55;;;;;;;4.93;1.30;;;7.00;99.90;;;;;;6194423;23;20646;-93
2023/03/23 12:56:30;;;;;;;4.67;1.20;;;7.00;99.90;;;;;;6196515;23;20168;-94
2023/03/23 12:59:09;;;;;;;4.33;1.00;;;6.90;99.90;;;;;;6193988;23;20211;-94
2023/03/23 13:01:45;;;;;;;4.50;1.10;;;6.90;99.90;;;;;;6195800;23;20183;-95
2023/03/23 13:04:21;;;;;;;6.07;1.30;;;6.90;99.90;;;;;;6199295;23;20251;-95
2023/03/23 13:06:51;;;;;;;6.17;1.40;;;6.90;99.90;;;;;;6197766;23;20180;-95
2023/03/23 13:09:27;;;;;;;4.83;1.37;;;6.80;99.90;;;;;;6196624;23;20177;-92
2023/03/23 13:11:59;;;;;;;5.67;1.20;;;6.70;99.90;;;;;;6193154;23;20191;-93
2023/03/23 13:14:40;;;;;;;2.47;1.10;;;6.60;99.90;;;;;;6191161;23;20215;-92
2023/03/23 13:17:28;;;;;;;5.30;1.30;;;6.60;99.90;;;;;;6191753;23;20208;-91
2023/03/23 13:20:21;;;;;;;3.57;1.20;;;6.60;99.90;;;;;;6197737;23;20205;-92
2023/03/23 13:22:57;;;;;;;5.50;1.20;;;6.50;99.90;;;;;;6194035;23;20175;-92